createdAt,value
2024-02-24T00:00:26.038Z,100.00
2024-02-24T00:03:23.778Z,100.00
2024-02-24T00:05:57.690Z,100.00
2024-02-24T00:08:30.413Z,100.00
2024-02-24T00:11:03.110Z,100.00
2024-02-24T00:13:35.417Z,100.00
2024-02-24T00:16:09.736Z,100.00
2024-02-24T00:18:42.010Z,100.00
2024-02-24T00:21:14.585Z,100.00
2024-02-24T00:23:49.467Z,100.00
2024-02-24T00:26:21.792Z,100.00
2024-02-24T00:28:56.425Z,100.00
2024-02-24T00:31:30.908Z,100.00
2024-02-24T00:34:03.291Z,100.00
2024-02-24T00:36:36.373Z,100.00
2024-02-24T00:39:08.785Z,100.00
2024-02-24T00:41:44.177Z,100.00
2024-02-24T00:44:16.549Z,100.00
2024-02-24T00:46:50.949Z,100.00
2024-02-24T00:49:26.051Z,100.00
2024-02-24T00:52:00.094Z,100.00
2024-02-24T00:54:32.551Z,100.00
2024-02-24T00:57:05.427Z,100.00
2024-02-24T00:59:37.899Z,100.00
2024-02-24T01:02:10.816Z,100.00
2024-02-24T01:04:43.404Z,100.00
2024-02-24T01:07:17.043Z,100.00
2024-02-24T01:09:51.763Z,100.00
2024-02-24T01:12:24.681Z,100.00
2024-02-24T01:14:58.517Z,100.00
2024-02-24T01:17:31.444Z,100.00
2024-02-24T01:20:04.508Z,100.00
2024-02-24T01:22:36.942Z,100.00
2024-02-24T01:25:10.277Z,100.00
2024-02-24T01:27:47.014Z,100.00
2024-02-24T01:30:18.009Z,100.00
2024-02-24T01:32:57.849Z,100.00
2024-02-24T01:35:30.530Z,100.00
2024-02-24T01:38:05.075Z,100.00
2024-02-24T01:40:37.433Z,100.00
2024-02-24T01:43:26.618Z,100.00
2024-02-24T01:45:59.790Z,100.00
2024-02-24T01:48:35.090Z,100.00
2024-02-24T01:51:08.853Z,100.00
2024-02-24T01:53:42.783Z,100.00
2024-02-24T01:56:16.032Z,100.00
2024-02-24T01:58:48.774Z,100.00
2024-02-24T02:01:21.673Z,100.00
2024-02-24T02:03:58.320Z,100.00
2024-02-24T02:06:33.293Z,100.00
2024-02-24T02:09:06.028Z,100.00
2024-02-24T02:11:47.994Z,100.00
2024-02-24T02:14:29.341Z,100.00
2024-02-24T02:17:01.743Z,100.00
2024-02-24T02:19:34.189Z,100.00
2024-02-24T02:22:12.376Z,100.00
2024-02-24T02:24:47.269Z,100.00
2024-02-24T02:27:19.884Z,100.00
2024-02-24T02:29:52.202Z,100.00
2024-02-24T02:32:24.672Z,100.00
2024-02-24T02:34:59.767Z,100.00
2024-02-24T02:37:32.220Z,100.00
2024-02-24T02:40:05.295Z,100.00
2024-02-24T02:42:37.705Z,100.00
2024-02-24T02:45:11.339Z,100.00
2024-02-24T02:47:44.291Z,100.00
2024-02-24T02:50:17.236Z,100.00
2024-02-24T02:52:50.118Z,100.00
2024-02-24T02:55:22.473Z,100.00
2024-02-24T02:57:57.259Z,100.00
2024-02-24T03:00:31.869Z,100.00
2024-02-24T03:03:04.556Z,100.00
2024-02-24T03:05:39.102Z,100.00
2024-02-24T03:08:11.769Z,100.00
2024-02-24T03:10:44.315Z,100.00
2024-02-24T03:13:19.037Z,100.00
2024-02-24T03:15:51.460Z,100.00
2024-02-24T03:18:24.062Z,100.00
2024-02-24T03:20:56.534Z,100.00
2024-02-24T03:23:28.857Z,100.00
2024-02-24T03:26:03.444Z,100.00
2024-02-24T03:28:35.876Z,100.00
2024-02-24T03:31:08.482Z,100.00
2024-02-24T03:33:41.144Z,100.00
2024-02-24T03:36:17.286Z,100.00
2024-02-24T03:38:51.961Z,100.00
2024-02-24T03:41:26.540Z,100.00
2024-02-24T03:43:59.050Z,100.00
2024-02-24T03:46:31.312Z,100.00
2024-02-24T03:49:04.460Z,100.00
2024-02-24T03:51:43.821Z,100.00
2024-02-24T03:54:16.317Z,100.00
2024-02-24T03:56:51.225Z,100.00
2024-02-24T03:59:23.964Z,100.00
2024-02-24T04:01:56.863Z,100.00
2024-02-24T04:04:29.428Z,100.00
2024-02-24T04:07:01.828Z,100.00
2024-02-24T04:09:36.426Z,100.00
2024-02-24T04:12:09.542Z,100.00
2024-02-24T04:14:42.050Z,100.00
2024-02-24T04:17:14.681Z,100.00
2024-02-24T04:19:47.162Z,100.00
2024-02-24T04:22:20.394Z,100.00
2024-02-24T04:24:53.083Z,100.00
2024-02-24T04:27:30.100Z,100.00
2024-02-24T04:30:04.773Z,100.00
2024-02-24T04:32:37.096Z,100.00
2024-02-24T04:35:10.601Z,100.00
2024-02-24T04:37:43.010Z,100.00
2024-02-24T04:40:16.069Z,100.00
2024-02-24T04:42:48.649Z,100.00
2024-02-24T04:45:20.961Z,100.00
2024-02-24T04:47:55.784Z,100.00
2024-02-24T04:50:28.098Z,100.00
2024-02-24T04:53:04.132Z,100.00
2024-02-24T04:55:36.498Z,100.00
2024-02-24T04:58:09.159Z,100.00
2024-02-24T05:00:43.406Z,100.00
2024-02-24T05:03:15.946Z,100.00
2024-02-24T05:05:53.229Z,100.00
2024-02-24T05:08:27.877Z,100.00
2024-02-24T05:11:01.709Z,100.00
2024-02-24T05:13:34.105Z,100.00
2024-02-24T05:16:08.923Z,100.00
2024-02-24T05:18:41.346Z,100.00
2024-02-24T05:21:23.246Z,100.00
2024-02-24T05:23:55.621Z,100.00
2024-02-24T05:26:31.679Z,100.00
2024-02-24T05:29:04.097Z,100.00
2024-02-24T05:31:36.453Z,100.00
2024-02-24T05:34:13.230Z,100.00
2024-02-24T05:36:45.664Z,100.00
2024-02-24T05:39:17.960Z,100.00
2024-02-24T05:41:56.089Z,100.00
2024-02-24T05:44:28.467Z,100.00
2024-02-24T05:47:05.645Z,100.00
2024-02-24T05:49:37.949Z,100.00
2024-02-24T05:52:10.245Z,100.00
2024-02-24T05:54:44.233Z,100.00
2024-02-24T05:57:16.671Z,100.00
2024-02-24T05:59:48.907Z,100.00
2024-02-24T06:02:21.228Z,100.00
2024-02-24T06:04:56.065Z,100.00
2024-02-24T06:07:28.397Z,100.00
2024-02-24T06:10:00.660Z,100.00
2024-02-24T06:12:35.496Z,100.00
2024-02-24T06:15:08.891Z,100.00
2024-02-24T06:17:41.376Z,100.00
2024-02-24T06:20:15.043Z,100.00
2024-02-24T06:22:47.442Z,100.00
2024-02-24T06:25:20.113Z,100.00
2024-02-24T06:27:54.700Z,100.00
2024-02-24T06:30:27.192Z,100.00
2024-02-24T06:32:59.821Z,100.00
2024-02-24T06:35:34.933Z,100.00
2024-02-24T06:38:07.791Z,100.00
2024-02-24T06:40:45.643Z,100.00
2024-02-24T06:43:19.009Z,100.00
2024-02-24T06:45:51.362Z,100.00
2024-02-24T06:48:24.114Z,100.00
2024-02-24T06:50:56.598Z,100.00
2024-02-24T06:53:29.181Z,100.00
2024-02-24T06:56:08.175Z,100.00
2024-02-24T06:58:43.086Z,100.00
2024-02-24T07:01:22.346Z,100.00
2024-02-24T07:03:54.793Z,100.00
2024-02-24T07:06:30.924Z,100.00
2024-02-24T07:09:04.272Z,100.00
2024-02-24T07:11:38.925Z,100.00
2024-02-24T07:14:11.321Z,100.00
2024-02-24T07:16:44.166Z,100.00
2024-02-24T07:19:16.710Z,100.00
2024-02-24T07:21:48.966Z,100.00
2024-02-24T07:24:21.126Z,100.00
2024-02-24T07:26:53.305Z,100.00
2024-02-24T07:29:25.563Z,100.00
2024-02-24T07:31:57.738Z,100.00
2024-02-24T07:34:34.629Z,100.00
2024-02-24T07:37:10.398Z,100.00
2024-02-24T07:39:45.116Z,100.00
2024-02-24T07:42:18.953Z,100.00
2024-02-24T07:44:51.073Z,100.00
2024-02-24T07:47:25.674Z,100.00
2024-02-24T07:50:00.492Z,100.00
2024-02-24T07:52:32.661Z,100.00
2024-02-24T07:55:05.104Z,100.00
2024-02-24T07:57:40.781Z,100.00
2024-02-24T08:00:14.854Z,100.00
2024-02-24T08:02:49.557Z,100.00
2024-02-24T08:05:22.384Z,100.00
2024-02-24T08:07:55.236Z,100.00
2024-02-24T08:10:27.717Z,100.00
2024-02-24T08:13:02.178Z,100.00
2024-02-24T08:15:34.456Z,100.00
2024-02-24T08:18:08.117Z,100.00
2024-02-24T08:20:47.253Z,100.00
2024-02-24T08:23:22.604Z,100.00
2024-02-24T08:25:59.573Z,100.00
2024-02-24T08:28:32.277Z,100.00
2024-02-24T08:31:07.136Z,100.00
2024-02-24T08:33:43.525Z,99.22
2024-02-24T08:36:19.981Z,99.74
2024-02-24T08:38:52.589Z,99.15
2024-02-24T08:41:25.415Z,98.87
2024-02-24T08:43:57.780Z,97.28
2024-02-24T08:46:30.998Z,93.93
2024-02-24T08:49:03.570Z,93.92
2024-02-24T08:51:41.209Z,95.28
2024-02-24T08:54:21.873Z,95.07
2024-02-24T08:56:54.392Z,93.62
2024-02-24T08:59:26.765Z,90.02
2024-02-24T09:01:58.910Z,85.52
2024-02-24T09:04:31.124Z,86.04
2024-02-24T09:07:03.360Z,84.56
2024-02-24T09:09:36.329Z,83.19
2024-02-24T09:12:09.181Z,82.23
2024-02-24T09:14:41.347Z,82.83
2024-02-24T09:17:13.629Z,84.10
2024-02-24T09:19:47.667Z,82.50
2024-02-24T09:22:19.807Z,82.54
2024-02-24T09:24:51.932Z,80.48
2024-02-24T09:27:24.258Z,77.21
2024-02-24T09:29:56.449Z,77.37
2024-02-24T09:32:28.554Z,77.17
2024-02-24T09:35:00.794Z,77.73
2024-02-24T09:37:33.537Z,79.22
2024-02-24T09:40:09.156Z,78.88
2024-02-24T09:42:41.493Z,78.29
2024-02-24T09:45:17.163Z,76.82
2024-02-24T09:47:49.422Z,72.60
2024-02-24T09:50:21.769Z,74.68
2024-02-24T09:52:54.009Z,76.98
2024-02-24T09:55:26.325Z,75.99
2024-02-24T09:58:00.489Z,73.60
2024-02-24T10:00:32.992Z,72.30
2024-02-24T10:03:06.176Z,72.77
2024-02-24T10:05:41.389Z,70.97
2024-02-24T10:08:15.007Z,71.57
2024-02-24T10:10:47.564Z,73.29
2024-02-24T10:13:22.500Z,70.87
2024-02-24T10:15:54.842Z,69.84
2024-02-24T10:18:29.566Z,69.56
2024-02-24T10:21:04.684Z,70.54
2024-02-24T10:23:39.636Z,70.85
2024-02-24T10:26:14.828Z,71.34
2024-02-24T10:28:47.127Z,72.22
2024-02-24T10:31:20.747Z,71.53
2024-02-24T10:33:55.125Z,69.06
2024-02-24T10:36:30.267Z,69.56
2024-02-24T10:39:05.136Z,69.47
2024-02-24T10:41:40.247Z,68.03
2024-02-24T10:44:22.207Z,68.76
2024-02-24T10:46:58.588Z,68.95
2024-02-24T10:49:31.198Z,70.07
2024-02-24T10:52:03.949Z,70.64
2024-02-24T10:54:39.625Z,69.25
2024-02-24T10:57:12.671Z,70.66
2024-02-24T10:59:45.481Z,71.16
2024-02-24T11:02:18.841Z,68.51
2024-02-24T11:04:52.944Z,68.33
2024-02-24T11:07:25.248Z,66.24
2024-02-24T11:09:58.090Z,66.46
2024-02-24T11:12:34.491Z,67.99
2024-02-24T11:15:07.239Z,69.18
2024-02-24T11:17:56.789Z,67.51
2024-02-24T11:20:56.785Z,68.56
2024-02-24T11:23:34.309Z,69.03
2024-02-24T11:26:34.655Z,68.50
2024-02-24T11:29:11.880Z,70.09
2024-02-24T11:31:46.943Z,67.46
2024-02-24T11:34:22.374Z,67.08
2024-02-24T11:36:57.006Z,67.35
2024-02-24T11:39:30.498Z,66.02
2024-02-24T11:42:03.092Z,65.60
2024-02-24T11:44:35.514Z,68.17
2024-02-24T11:47:08.536Z,66.92
2024-02-24T11:49:50.507Z,64.05
2024-02-24T11:52:23.110Z,64.86
2024-02-24T11:55:00.016Z,64.77
2024-02-24T11:57:35.092Z,66.40
2024-02-24T12:00:10.142Z,65.52
2024-02-24T12:02:42.495Z,64.95
2024-02-24T12:05:18.554Z,63.26
2024-02-24T12:07:51.415Z,64.07
2024-02-24T12:10:24.155Z,62.03
2024-02-24T12:12:56.789Z,63.59
2024-02-24T12:15:29.148Z,64.67
2024-02-24T12:18:02.878Z,65.22
2024-02-24T12:20:37.684Z,64.16
2024-02-24T12:23:11.704Z,63.35
2024-02-24T12:25:45.168Z,62.66
2024-02-24T12:28:20.277Z,64.26
2024-02-24T12:30:55.190Z,64.03
2024-02-24T12:33:29.456Z,64.93
2024-02-24T12:36:08.228Z,65.43
2024-02-24T12:38:41.659Z,64.06
2024-02-24T12:41:16.239Z,63.81
2024-02-24T12:43:48.689Z,62.03
2024-02-24T12:46:23.658Z,63.74
2024-02-24T12:48:58.574Z,62.46
2024-02-24T12:51:31.370Z,62.39
2024-02-24T12:54:06.928Z,61.45
2024-02-24T12:56:39.185Z,61.06
2024-02-24T12:59:13.379Z,61.50
2024-02-24T13:01:46.063Z,62.22
2024-02-24T13:04:18.550Z,61.62
2024-02-24T13:06:52.980Z,61.38
2024-02-24T13:09:25.933Z,61.46
2024-02-24T13:11:58.588Z,60.65
2024-02-24T13:14:31.120Z,59.60
2024-02-24T13:17:04.674Z,59.25
2024-02-24T13:19:37.076Z,59.81
2024-02-24T13:22:12.788Z,59.03
2024-02-24T13:24:47.567Z,58.68
2024-02-24T13:27:22.125Z,59.45
2024-02-24T13:29:55.517Z,59.42
2024-02-24T13:32:28.241Z,60.05
2024-02-24T13:35:00.906Z,58.87
2024-02-24T13:37:33.432Z,59.68
2024-02-24T13:40:07.963Z,60.30
2024-02-24T13:42:40.536Z,59.47
2024-02-24T13:45:13.391Z,61.02
2024-02-24T13:47:46.862Z,59.83
2024-02-24T13:50:23.842Z,59.69
2024-02-24T13:52:56.290Z,61.73
2024-02-24T13:55:28.571Z,62.45
2024-02-24T13:58:04.297Z,61.76
2024-02-24T14:00:37.215Z,62.58
2024-02-24T14:03:11.121Z,63.35
2024-02-24T14:05:43.740Z,61.60
2024-02-24T14:08:18.360Z,60.72
2024-02-24T14:10:53.710Z,61.47
2024-02-24T14:13:28.969Z,62.71
2024-02-24T14:16:03.010Z,60.67
2024-02-24T14:18:36.883Z,60.69
2024-02-24T14:21:09.720Z,58.16
2024-02-24T14:23:42.243Z,59.74
2024-02-24T14:26:15.386Z,60.33
2024-02-24T14:29:00.563Z,58.87
2024-02-24T14:31:34.266Z,59.21
2024-02-24T14:34:06.943Z,59.06
2024-02-24T14:36:39.666Z,58.24
2024-02-24T14:39:14.204Z,59.62
2024-02-24T14:41:48.982Z,60.01
2024-02-24T14:44:21.872Z,59.80
2024-02-24T14:47:00.583Z,59.75
2024-02-24T14:49:32.918Z,59.98
2024-02-24T14:52:09.981Z,59.96
2024-02-24T14:54:44.734Z,58.66
2024-02-24T14:57:17.185Z,58.38
2024-02-24T14:59:49.674Z,59.09
2024-02-24T15:02:35.389Z,59.07
2024-02-24T15:05:15.127Z,58.32
2024-02-24T15:07:49.709Z,57.97
2024-02-24T15:10:22.741Z,58.34
2024-02-24T15:12:58.283Z,58.17
2024-02-24T15:15:30.726Z,59.12
2024-02-24T15:18:06.199Z,58.98
2024-02-24T15:20:38.663Z,59.89
2024-02-24T15:23:10.913Z,60.17
2024-02-24T15:25:45.600Z,59.63
2024-02-24T15:28:22.323Z,59.18
2024-02-24T15:30:54.939Z,60.19
2024-02-24T15:33:27.260Z,60.38
2024-02-24T15:36:00.868Z,60.49
2024-02-24T15:38:33.275Z,60.81
2024-02-24T15:41:05.911Z,60.87
2024-02-24T15:43:39.297Z,60.82
2024-02-24T15:46:11.506Z,60.73
2024-02-24T15:48:44.194Z,60.57
2024-02-24T15:51:18.879Z,62.04
2024-02-24T15:53:55.898Z,63.32
2024-02-24T15:56:30.719Z,63.79
2024-02-24T15:59:05.030Z,63.60
2024-02-24T16:01:37.492Z,63.09
2024-02-24T16:04:12.269Z,62.81
2024-02-24T16:06:48.650Z,62.68
2024-02-24T16:09:25.304Z,62.74
2024-02-24T16:15:39.111Z,63.67
2024-02-24T16:21:34.477Z,64.51
2024-02-24T16:24:07.231Z,65.21
2024-02-24T16:26:40.010Z,66.19
2024-02-24T16:29:12.288Z,66.57
2024-02-24T16:31:44.466Z,66.96
2024-02-24T16:34:16.876Z,67.82
2024-02-24T16:36:49.356Z,68.56
2024-02-24T16:39:23.523Z,69.21
2024-02-24T16:41:56.540Z,69.96
2024-02-24T16:44:31.252Z,70.16
2024-02-24T16:47:03.489Z,70.99
2024-02-24T16:49:35.896Z,71.61
2024-02-24T16:52:08.760Z,72.22
2024-02-24T16:54:43.673Z,73.11
2024-02-24T16:57:18.324Z,73.50
2024-02-24T16:59:51.076Z,74.08
2024-02-24T17:02:23.274Z,74.91
2024-02-24T17:04:58.131Z,75.47
2024-02-24T17:07:30.789Z,75.51
2024-02-24T17:10:03.529Z,75.90
2024-02-24T17:12:36.249Z,76.71
2024-02-24T17:15:11.722Z,77.13
2024-02-24T17:17:47.750Z,77.89
2024-02-24T17:20:22.698Z,78.45
2024-02-24T17:22:55.523Z,79.05
2024-02-24T17:25:30.688Z,80.17
2024-02-24T17:28:07.600Z,81.03
2024-02-24T17:30:42.405Z,81.43
2024-02-24T17:33:14.937Z,81.94
2024-02-24T17:35:47.533Z,82.02
2024-02-24T17:38:23.591Z,82.77
2024-02-24T17:41:01.238Z,83.67
2024-02-24T17:43:34.686Z,84.56
2024-02-24T17:46:07.569Z,84.31
2024-02-24T17:48:40.040Z,84.74
2024-02-24T17:51:12.820Z,85.06
2024-02-24T17:53:45.478Z,85.19
2024-02-24T17:56:20.213Z,85.86
2024-02-24T17:58:52.821Z,86.54
2024-02-24T18:01:25.220Z,87.31
2024-02-24T18:03:59.444Z,88.07
2024-02-24T18:06:32.427Z,88.51
2024-02-24T18:09:05.159Z,89.15
2024-02-24T18:11:37.490Z,89.86
2024-02-24T18:14:09.655Z,90.05
2024-02-24T18:16:42.302Z,90.43
2024-02-24T18:19:14.677Z,90.66
2024-02-24T18:21:47.462Z,91.11
2024-02-24T18:24:20.147Z,91.51
2024-02-24T18:26:52.640Z,91.93
2024-02-24T18:29:24.858Z,92.40
2024-02-24T18:31:58.012Z,92.88
2024-02-24T18:34:32.764Z,93.16
2024-02-24T18:37:05.640Z,93.10
2024-02-24T18:39:44.212Z,93.26
2024-02-24T18:42:17.561Z,93.25
2024-02-24T18:44:50.768Z,93.55
2024-02-24T18:47:23.932Z,93.57
2024-02-24T18:49:59.372Z,93.68
2024-02-24T18:52:36.289Z,93.60
2024-02-24T18:55:10.269Z,93.80
2024-02-24T18:57:45.228Z,93.78
2024-02-24T19:00:19.232Z,93.87
2024-02-24T19:02:54.934Z,94.32
2024-02-24T19:05:30.675Z,94.13
2024-02-24T19:08:08.354Z,94.37
2024-02-24T19:10:43.032Z,94.57
2024-02-24T19:13:18.192Z,94.80
2024-02-24T19:15:53.675Z,94.95
2024-02-24T19:18:34.822Z,94.92
2024-02-24T19:21:08.154Z,94.89
2024-02-24T19:23:40.524Z,95.10
2024-02-24T19:26:12.826Z,95.42
2024-02-24T19:28:45.348Z,95.62
2024-02-24T19:31:17.624Z,95.79
2024-02-24T19:33:50.076Z,95.92
2024-02-24T19:36:22.662Z,96.20
2024-02-24T19:39:10.487Z,96.42
2024-02-24T19:41:48.856Z,96.71
2024-02-24T19:44:23.870Z,97.37
2024-02-24T19:46:56.886Z,97.74
2024-02-24T19:49:31.640Z,97.91
2024-02-24T19:52:07.091Z,98.02
2024-02-24T19:54:40.187Z,98.40
2024-02-24T19:57:12.412Z,98.50
2024-02-24T19:59:47.468Z,98.69
2024-02-24T20:02:19.811Z,98.90
2024-02-24T20:04:52.150Z,99.17
2024-02-24T20:07:27.754Z,99.50
2024-02-24T20:10:00.361Z,99.75
2024-02-24T20:12:36.053Z,100.00
2024-02-24T20:15:09.401Z,100.00
2024-02-24T20:17:41.721Z,100.00
2024-02-24T20:20:15.458Z,100.00
2024-02-24T20:22:47.708Z,100.00
2024-02-24T20:25:20.747Z,100.00
2024-02-24T20:27:53.279Z,100.00
2024-02-24T20:30:25.884Z,100.00
2024-02-24T20:33:00.549Z,100.00
2024-02-24T20:35:35.525Z,100.00
2024-02-24T20:38:08.153Z,100.00
2024-02-24T20:40:42.724Z,100.00
2024-02-24T20:43:15.196Z,100.00
2024-02-24T20:45:47.613Z,100.00
2024-02-24T20:48:22.622Z,100.00
2024-02-24T20:50:55.197Z,100.00
2024-02-24T20:53:28.166Z,100.00
2024-02-24T20:56:05.790Z,100.00
2024-02-24T20:58:39.778Z,100.00
2024-02-24T21:01:12.165Z,100.00
2024-02-24T21:03:46.998Z,100.00
2024-02-24T21:06:19.444Z,100.00
2024-02-24T21:08:51.989Z,100.00
2024-02-24T21:11:24.856Z,100.00
2024-02-24T21:13:59.752Z,100.00
2024-02-24T21:16:32.593Z,100.00
2024-02-24T21:19:09.745Z,100.00
2024-02-24T21:21:42.422Z,100.00
2024-02-24T21:24:15.012Z,100.00
2024-02-24T21:26:49.088Z,100.00
2024-02-24T21:29:21.573Z,100.00
2024-02-24T21:31:55.147Z,100.00
2024-02-24T21:34:31.484Z,100.00
2024-02-24T21:37:03.842Z,100.00
2024-02-24T21:39:36.344Z,100.00
2024-02-24T21:42:10.521Z,100.00
2024-02-24T21:44:45.457Z,100.00
2024-02-24T21:47:20.023Z,100.00
2024-02-24T21:49:52.238Z,100.00
2024-02-24T21:52:24.877Z,100.00
2024-02-24T21:54:57.320Z,100.00
2024-02-24T21:57:33.269Z,100.00
2024-02-24T22:00:16.687Z,100.00
2024-02-24T22:02:50.099Z,100.00
2024-02-24T22:05:25.188Z,100.00
2024-02-24T22:08:00.309Z,100.00
2024-02-24T22:10:32.647Z,100.00
2024-02-24T22:13:06.450Z,100.00
2024-02-24T22:15:41.296Z,100.00
2024-02-24T22:18:16.008Z,100.00
2024-02-24T22:20:51.934Z,100.00
2024-02-24T22:23:24.636Z,100.00
2024-02-24T22:25:57.285Z,100.00
2024-02-24T22:28:29.774Z,100.00
2024-02-24T22:31:02.160Z,100.00
2024-02-24T22:33:35.000Z,100.00
2024-02-24T22:36:08.653Z,100.00
2024-02-24T22:38:41.060Z,100.00
2024-02-24T22:41:21.708Z,100.00
2024-02-24T22:43:56.352Z,100.00
2024-02-24T22:46:31.897Z,100.00
2024-02-24T22:49:04.569Z,100.00
2024-02-24T22:51:41.690Z,100.00
2024-02-24T22:54:14.341Z,100.00
2024-02-24T22:56:46.860Z,100.00
2024-02-24T22:59:19.079Z,100.00
2024-02-24T23:01:51.509Z,100.00
2024-02-24T23:04:24.128Z,100.00
2024-02-24T23:06:56.665Z,100.00
2024-02-24T23:09:29.039Z,100.00
2024-02-24T23:12:04.008Z,100.00
2024-02-24T23:14:36.929Z,100.00
2024-02-24T23:17:09.895Z,100.00
2024-02-24T23:19:42.796Z,100.00
2024-02-24T23:22:17.594Z,100.00
2024-02-24T23:24:49.954Z,100.00
2024-02-24T23:27:22.288Z,100.00
2024-02-24T23:29:57.101Z,100.00
2024-02-24T23:32:32.121Z,100.00
2024-02-24T23:35:04.846Z,100.00
2024-02-24T23:37:37.394Z,100.00
2024-02-24T23:40:11.331Z,100.00
2024-02-24T23:42:46.007Z,100.00
2024-02-24T23:45:18.497Z,100.00
2024-02-24T23:47:51.002Z,100.00
2024-02-24T23:50:23.413Z,100.00
2024-02-24T23:52:55.740Z,100.00
2024-02-24T23:55:28.274Z,100.00
2024-02-24T23:58:02.972Z,100.00
